createdAt,value
2018-03-04T00:01:06.524Z,-0.50
2018-03-04T00:03:35.326Z,-0.50
2018-03-04T00:06:03.768Z,-0.60
2018-03-04T00:08:32.465Z,-0.50
2018-03-04T00:11:00.606Z,-0.50
2018-03-04T00:13:28.752Z,-0.60
2018-03-04T00:15:57.802Z,-0.60
2018-03-04T00:18:26.172Z,-0.60
2018-03-04T00:20:54.422Z,-0.60
2018-03-04T00:23:22.789Z,-0.60
2018-03-04T00:25:51.810Z,-0.70
2018-03-04T00:28:20.695Z,-0.70
2018-03-04T00:30:49.226Z,-0.70
2018-03-04T00:33:18.936Z,-0.60
2018-03-04T00:35:49.191Z,-0.60
2018-03-04T00:38:17.906Z,-0.60
2018-03-04T00:40:46.413Z,-0.60
2018-03-04T00:43:15.418Z,-0.60
2018-03-04T00:45:44.317Z,-0.50
2018-03-04T00:48:13.268Z,-0.50
2018-03-04T00:50:41.550Z,-0.50
2018-03-04T00:53:09.956Z,-0.50
2018-03-04T00:55:39.093Z,-0.50
2018-03-04T00:58:07.370Z,-0.50
2018-03-04T01:00:35.724Z,-0.60
2018-03-04T01:03:03.957Z,-0.60
2018-03-04T01:05:32.198Z,-0.60
2018-03-04T01:08:00.326Z,-0.60
2018-03-04T01:10:29.239Z,-0.60
2018-03-04T01:12:57.360Z,-0.60
2018-03-04T01:15:25.506Z,-0.60
2018-03-04T01:17:53.636Z,-0.60
2018-03-04T01:20:21.818Z,-0.60
2018-03-04T01:22:51.314Z,-0.60
2018-03-04T01:25:20.340Z,-0.60
2018-03-04T01:27:48.455Z,-0.60
2018-03-04T01:30:17.359Z,-0.70
2018-03-04T01:32:46.276Z,-0.60
2018-03-04T01:35:14.417Z,-0.60
2018-03-04T01:37:42.605Z,-0.60
2018-03-04T01:40:10.837Z,-0.60
2018-03-04T01:42:38.977Z,-0.60
2018-03-04T01:45:07.099Z,-0.60
2018-03-04T01:47:36.004Z,-0.70
2018-03-04T01:50:04.148Z,-0.70
2018-03-04T01:52:32.349Z,-0.60
2018-03-04T01:55:00.516Z,-0.70
2018-03-04T01:57:28.718Z,-0.60
2018-03-04T01:59:56.853Z,-0.60
2018-03-04T02:02:25.850Z,-0.70
2018-03-04T02:04:54.787Z,-0.70
2018-03-04T02:07:22.942Z,-0.70
2018-03-04T02:09:51.069Z,-0.80
2018-03-04T02:12:19.370Z,-0.80
2018-03-04T02:14:47.525Z,-0.80
2018-03-04T02:17:15.777Z,-0.90
2018-03-04T02:19:44.094Z,-0.90
2018-03-04T02:22:12.239Z,-0.90
2018-03-04T02:24:41.182Z,-0.90
2018-03-04T02:27:09.413Z,-0.90
2018-03-04T02:29:37.557Z,-0.90
2018-03-04T02:32:05.700Z,-0.90
2018-03-04T02:34:33.833Z,-1.00
2018-03-04T02:37:02.214Z,-1.00
2018-03-04T02:39:30.362Z,-1.00
2018-03-04T02:41:58.579Z,-1.00
2018-03-04T02:44:26.711Z,-0.90
2018-03-04T02:46:55.633Z,-1.00
2018-03-04T02:49:23.760Z,-0.90
2018-03-04T02:51:51.917Z,-0.90
2018-03-04T02:54:20.241Z,-0.90
2018-03-04T02:56:48.970Z,-0.90
2018-03-04T02:59:17.113Z,-0.90
2018-03-04T03:01:45.274Z,-0.90
2018-03-04T03:04:13.425Z,-0.90
2018-03-04T03:06:41.621Z,-0.90
2018-03-04T03:09:09.767Z,-0.80
2018-03-04T03:11:38.676Z,-0.80
2018-03-04T03:14:06.952Z,-0.80
2018-03-04T03:16:35.104Z,-0.80
2018-03-04T03:19:03.254Z,-0.80
2018-03-04T03:21:31.393Z,-0.70
2018-03-04T03:23:59.550Z,-0.70
2018-03-04T03:26:27.677Z,-0.70
2018-03-04T03:28:56.605Z,-0.70
2018-03-04T03:31:24.737Z,-0.70
2018-03-04T03:33:52.892Z,-0.70
2018-03-04T03:36:21.022Z,-0.60
2018-03-04T03:38:49.165Z,-0.60
2018-03-04T03:41:17.435Z,-0.70
2018-03-04T03:43:46.344Z,-0.70
2018-03-04T03:46:14.509Z,-0.70
2018-03-04T03:48:42.650Z,-0.70
2018-03-04T03:51:10.794Z,-0.60
2018-03-04T03:53:39.531Z,-0.70
2018-03-04T03:56:07.668Z,-0.70
2018-03-04T03:58:35.816Z,-0.70
2018-03-04T04:01:04.010Z,-0.60
2018-03-04T04:03:32.127Z,-0.60
2018-03-04T04:06:00.273Z,-0.60
2018-03-04T04:08:29.165Z,-0.50
2018-03-04T04:10:58.190Z,-0.40
2018-03-04T04:13:26.330Z,-0.50
2018-03-04T04:15:55.230Z,-0.50
2018-03-04T04:18:23.727Z,-0.50
2018-03-04T04:20:52.143Z,-0.40
2018-03-04T04:23:20.298Z,-0.40
2018-03-04T04:25:48.443Z,-0.40
2018-03-04T04:28:16.718Z,-0.40
2018-03-04T04:30:44.869Z,-0.40
2018-03-04T04:33:13.754Z,-0.40
2018-03-04T04:35:42.752Z,-0.40
2018-03-04T04:38:11.650Z,-0.40
2018-03-04T04:40:39.933Z,-0.50
2018-03-04T04:43:08.080Z,-0.40
2018-03-04T04:45:36.264Z,-0.40
2018-03-04T04:48:05.173Z,-0.40
2018-03-04T04:50:33.304Z,-0.40
2018-03-04T04:53:01.460Z,-0.30
2018-03-04T04:55:30.065Z,-0.30
2018-03-04T04:57:58.260Z,-0.30
2018-03-04T05:00:26.493Z,-0.30
2018-03-04T05:02:54.632Z,-0.20
2018-03-04T05:05:22.771Z,-0.30
2018-03-04T05:07:51.057Z,-0.20
2018-03-04T05:10:19.289Z,-0.20
2018-03-04T05:12:47.558Z,-0.20
2018-03-04T05:15:15.723Z,-0.20
2018-03-04T05:17:43.865Z,-0.20
2018-03-04T05:20:11.995Z,-0.20
2018-03-04T05:22:40.922Z,-0.20
2018-03-04T05:25:09.056Z,-0.20
2018-03-04T05:27:37.196Z,-0.10
2018-03-04T05:30:05.325Z,-0.10
2018-03-04T05:32:33.523Z,0.00
2018-03-04T05:35:01.665Z,-0.10
2018-03-04T05:37:29.874Z,0.00
2018-03-04T05:39:58.014Z,0.00
2018-03-04T05:42:26.136Z,0.00
2018-03-04T05:44:54.287Z,0.00
2018-03-04T05:47:22.422Z,0.00
2018-03-04T05:49:50.567Z,-0.10
2018-03-04T05:52:19.458Z,0.00
2018-03-04T05:54:48.365Z,0.00
2018-03-04T05:57:16.485Z,0.00
2018-03-04T05:59:44.634Z,0.10
2018-03-04T06:02:12.754Z,0.10
2018-03-04T06:04:40.896Z,0.10
2018-03-04T06:07:09.844Z,0.10
2018-03-04T06:09:37.993Z,0.10
2018-03-04T06:12:06.898Z,0.10
2018-03-04T06:14:35.809Z,0.10
2018-03-04T06:17:03.939Z,0.00
2018-03-04T06:19:32.087Z,0.10
2018-03-04T06:22:00.210Z,0.00
2018-03-04T06:24:28.369Z,0.00
2018-03-04T06:26:57.269Z,0.00
2018-03-04T06:29:25.433Z,0.10
2018-03-04T06:31:54.406Z,0.00
2018-03-04T06:34:22.553Z,0.00
2018-03-04T06:36:50.684Z,0.00
2018-03-04T06:39:18.822Z,0.10
2018-03-04T06:41:46.961Z,0.10
2018-03-04T06:44:15.096Z,0.10
2018-03-04T06:46:43.277Z,0.10
2018-03-04T06:49:11.410Z,0.10
2018-03-04T06:51:39.580Z,0.20
2018-03-04T06:54:07.723Z,0.20
2018-03-04T06:56:35.856Z,0.30
2018-03-04T06:59:04.014Z,0.30
2018-03-04T07:01:32.497Z,0.30
2018-03-04T07:04:00.633Z,0.40
2018-03-04T07:06:28.775Z,0.30
2018-03-04T07:08:56.908Z,0.40
2018-03-04T07:11:25.821Z,0.50
2018-03-04T07:13:53.933Z,0.50
2018-03-04T07:16:22.073Z,0.50
2018-03-04T07:18:50.196Z,0.50
2018-03-04T07:21:19.112Z,0.60
2018-03-04T07:23:47.245Z,0.60
2018-03-04T07:26:15.378Z,0.60
2018-03-04T07:28:43.513Z,0.70
2018-03-04T07:31:12.400Z,0.70
2018-03-04T07:33:41.325Z,0.70
2018-03-04T07:36:09.437Z,0.70
2018-03-04T07:38:37.576Z,0.70
2018-03-04T07:41:05.702Z,0.70
2018-03-04T07:43:34.606Z,1.00
2018-03-04T07:46:02.737Z,1.00
2018-03-04T07:48:30.877Z,1.00
2018-03-04T07:50:59.005Z,1.10
2018-03-04T07:53:27.916Z,1.20
2018-03-04T07:55:56.404Z,1.20
2018-03-04T07:58:24.550Z,1.20
2018-03-04T08:00:53.528Z,1.00
2018-03-04T08:03:21.679Z,1.00
2018-03-04T08:05:49.828Z,1.10
2018-03-04T08:08:17.972Z,1.10
2018-03-04T08:10:46.112Z,1.20
2018-03-04T08:13:15.007Z,1.40
2018-03-04T08:15:43.915Z,1.30
2018-03-04T08:18:12.054Z,1.30
2018-03-04T08:20:40.230Z,1.30
2018-03-04T08:23:08.355Z,1.50
2018-03-04T08:25:36.506Z,1.40
2018-03-04T08:28:16.408Z,1.40
2018-03-04T08:30:44.574Z,1.50
2018-03-04T08:33:12.698Z,1.60
2018-03-04T08:35:40.835Z,1.30
2018-03-04T08:38:08.949Z,1.30
2018-03-04T08:40:37.189Z,1.40
2018-03-04T08:43:06.071Z,1.10
2018-03-04T08:45:35.082Z,1.20
2018-03-04T08:48:03.221Z,1.20
2018-03-04T08:50:31.332Z,1.30
2018-03-04T08:52:59.473Z,1.30
2018-03-04T08:55:27.595Z,1.40
2018-03-04T08:57:55.733Z,1.40
2018-03-04T09:00:24.746Z,1.40
2018-03-04T09:02:52.925Z,1.40
2018-03-04T09:05:21.059Z,1.50
2018-03-04T09:07:49.956Z,1.40
2018-03-04T09:10:18.858Z,1.50
2018-03-04T09:13:04.450Z,1.70
2018-03-04T09:15:32.574Z,1.70
2018-03-04T09:18:00.917Z,1.70
2018-03-04T09:20:44.714Z,1.50
2018-03-04T09:23:13.618Z,1.50
2018-03-04T09:25:41.746Z,1.50
2018-03-04T09:28:09.922Z,1.60
2018-03-04T09:30:38.431Z,1.70
2018-03-04T09:33:06.605Z,1.90
2018-03-04T09:35:34.830Z,2.00
2018-03-04T09:38:02.964Z,2.00
2018-03-04T09:40:31.092Z,1.90
2018-03-04T09:42:59.244Z,1.80
2018-03-04T09:45:27.458Z,1.70
2018-03-04T09:47:55.556Z,1.60
2018-03-04T09:50:24.132Z,1.60
2018-03-04T09:52:52.272Z,1.30
2018-03-04T09:55:20.413Z,1.40
2018-03-04T09:57:48.577Z,1.50
2018-03-04T10:00:16.703Z,1.60
2018-03-04T10:02:45.594Z,1.90
2018-03-04T10:05:13.814Z,1.90
2018-03-04T10:07:42.019Z,2.00
2018-03-04T10:10:10.229Z,2.00
2018-03-04T10:12:38.511Z,2.00
2018-03-04T10:15:06.688Z,2.00
2018-03-04T10:17:35.551Z,2.10
2018-03-04T10:20:03.714Z,2.10
2018-03-04T10:22:32.607Z,2.10
2018-03-04T10:25:01.545Z,2.30
2018-03-04T10:27:29.685Z,2.30
2018-03-04T10:29:57.860Z,2.40
2018-03-04T10:32:25.985Z,2.60
2018-03-04T10:34:54.129Z,3.30
2018-03-04T10:37:22.282Z,3.50
2018-03-04T10:39:50.432Z,3.90
2018-03-04T10:42:18.609Z,3.90
2018-03-04T10:44:46.812Z,3.90
2018-03-04T10:47:14.942Z,3.80
2018-03-04T10:49:43.119Z,4.10
2018-03-04T10:52:12.049Z,3.60
2018-03-04T10:54:40.172Z,3.60
2018-03-04T10:57:09.116Z,3.60
2018-03-04T10:59:37.274Z,3.60
2018-03-04T11:05:00.825Z,4.20
2018-03-04T11:07:29.734Z,4.40
2018-03-04T11:09:57.869Z,4.40
2018-03-04T11:12:26.797Z,4.60
2018-03-04T11:14:54.955Z,4.50
2018-03-04T11:17:23.091Z,4.50
2018-03-04T11:19:51.215Z,4.40
2018-03-04T11:22:19.367Z,4.00
2018-03-04T11:24:47.487Z,5.00
2018-03-04T11:27:15.641Z,6.00
2018-03-04T11:29:43.918Z,7.80
2018-03-04T11:32:12.082Z,8.10
2018-03-04T11:34:40.214Z,8.10
2018-03-04T11:37:09.128Z,8.30
2018-03-04T11:39:37.237Z,8.30
2018-03-04T11:42:05.387Z,9.10
2018-03-04T11:44:33.513Z,10.70
2018-03-04T11:47:02.497Z,13.00
2018-03-04T11:49:30.625Z,12.90
2018-03-04T11:51:58.759Z,13.90
2018-03-04T11:54:26.950Z,12.30
2018-03-04T11:56:55.080Z,12.10
2018-03-04T11:59:24.002Z,12.70
2018-03-04T12:01:52.241Z,12.70
2018-03-04T12:04:20.385Z,11.60
2018-03-04T12:06:48.512Z,10.90
2018-03-04T12:09:16.653Z,11.00
2018-03-04T12:11:44.773Z,11.20
2018-03-04T12:14:12.920Z,10.10
2018-03-04T12:16:41.813Z,8.80
2018-03-04T12:19:09.954Z,8.80
2018-03-04T12:21:38.080Z,9.00
2018-03-04T12:24:06.222Z,10.30
2018-03-04T12:26:35.131Z,12.00
2018-03-04T12:29:03.279Z,12.00
2018-03-04T12:31:31.459Z,11.90
2018-03-04T12:33:59.597Z,11.10
2018-03-04T12:36:27.725Z,11.20
2018-03-04T12:38:56.316Z,10.60
2018-03-04T12:41:24.422Z,10.50
2018-03-04T12:43:52.565Z,10.40
2018-03-04T12:46:20.681Z,9.70
2018-03-04T12:48:49.590Z,9.70
2018-03-04T12:51:17.712Z,9.60
2018-03-04T12:53:45.849Z,9.90
2018-03-04T12:56:13.973Z,9.50
2018-03-04T12:58:42.173Z,10.20
2018-03-04T13:01:10.421Z,10.50
2018-03-04T13:03:38.560Z,10.60
2018-03-04T13:06:07.069Z,10.20
2018-03-04T13:08:35.182Z,9.80
2018-03-04T13:11:03.321Z,9.80
2018-03-04T13:13:31.445Z,9.70
2018-03-04T13:15:59.589Z,10.00
2018-03-04T13:18:27.712Z,9.70
2018-03-04T13:20:55.862Z,10.00
2018-03-04T13:23:23.986Z,9.90
2018-03-04T13:25:52.897Z,9.00
2018-03-04T13:28:21.025Z,9.00
2018-03-04T13:30:49.166Z,8.90
2018-03-04T13:33:17.302Z,8.40
2018-03-04T13:35:45.447Z,8.10
2018-03-04T13:38:13.573Z,7.80
2018-03-04T13:40:41.722Z,7.40
2018-03-04T13:43:09.868Z,7.40
2018-03-04T13:45:38.004Z,7.40
2018-03-04T13:48:06.152Z,7.30
2018-03-04T13:50:34.309Z,6.90
2018-03-04T13:53:02.442Z,7.00
2018-03-04T13:55:30.577Z,7.00
2018-03-04T13:57:58.716Z,7.10
2018-03-04T14:00:26.982Z,6.80
2018-03-04T14:02:56.229Z,6.70
2018-03-04T14:05:24.354Z,6.70
2018-03-04T14:07:53.245Z,6.50
2018-03-04T14:10:21.385Z,6.50
2018-03-04T14:12:49.501Z,6.30
2018-03-04T14:15:17.671Z,6.30
2018-03-04T14:17:45.806Z,6.40
2018-03-04T14:20:13.938Z,6.20
2018-03-04T14:22:42.062Z,6.30
2018-03-04T14:25:10.978Z,6.20
2018-03-04T14:27:39.109Z,6.20
2018-03-04T14:30:07.306Z,6.30
2018-03-04T14:32:36.190Z,6.30
2018-03-04T14:35:05.120Z,6.10
2018-03-04T14:37:33.358Z,6.10
2018-03-04T14:40:02.629Z,6.00
2018-03-04T14:42:30.743Z,6.00
2018-03-04T14:44:58.910Z,6.00
2018-03-04T14:47:27.037Z,6.00
2018-03-04T14:49:55.189Z,6.10
2018-03-04T14:52:23.317Z,6.00
2018-03-04T14:54:52.285Z,5.90
2018-03-04T14:57:20.423Z,5.90
2018-03-04T14:59:48.596Z,5.70
2018-03-04T15:02:16.747Z,5.60
2018-03-04T15:04:44.894Z,5.50
2018-03-04T15:07:13.780Z,5.60
2018-03-04T15:09:42.709Z,5.60
2018-03-04T15:12:10.857Z,5.60
2018-03-04T15:14:38.990Z,5.50
2018-03-04T15:17:07.137Z,5.50
2018-03-04T15:19:35.264Z,5.50
2018-03-04T15:22:03.419Z,5.40
2018-03-04T15:24:32.326Z,5.30
2018-03-04T15:27:00.474Z,5.30
2018-03-04T15:29:29.381Z,5.40
2018-03-04T15:31:58.297Z,5.40
2018-03-04T15:34:26.432Z,5.40
2018-03-04T15:36:55.349Z,5.40
2018-03-04T15:39:23.473Z,5.30
2018-03-04T15:41:51.618Z,5.30
2018-03-04T15:44:19.744Z,5.30
2018-03-04T15:46:47.896Z,5.40
2018-03-04T15:49:16.021Z,5.30
2018-03-04T15:51:44.177Z,5.30
2018-03-04T15:54:12.317Z,5.20
2018-03-04T15:56:41.224Z,5.30
2018-03-04T15:59:09.369Z,5.20
2018-03-04T16:01:38.297Z,5.10
2018-03-04T16:04:06.441Z,5.10
2018-03-04T16:06:35.361Z,5.00
2018-03-04T16:09:03.487Z,5.00
2018-03-04T16:11:32.392Z,4.90
2018-03-04T16:14:00.562Z,4.90
2018-03-04T16:16:28.709Z,4.90
2018-03-04T16:18:56.845Z,4.90
2018-03-04T16:21:25.092Z,4.90
2018-03-04T16:23:53.981Z,4.80
2018-03-04T16:26:22.125Z,4.80
2018-03-04T16:28:50.260Z,4.70
2018-03-04T16:31:18.843Z,4.70
2018-03-04T16:33:47.033Z,4.60
2018-03-04T16:36:16.252Z,4.60
2018-03-04T16:38:44.456Z,4.60
2018-03-04T16:41:12.717Z,4.60
2018-03-04T16:43:40.940Z,4.50
2018-03-04T16:46:09.097Z,4.40
2018-03-04T16:48:38.920Z,4.40
2018-03-04T16:51:07.875Z,4.30
2018-03-04T16:53:36.036Z,4.30
2018-03-04T16:56:05.632Z,4.30
2018-03-04T16:58:34.307Z,4.20
2018-03-04T17:01:02.578Z,4.20
2018-03-04T17:03:31.251Z,4.10
2018-03-04T17:06:03.593Z,4.10
2018-03-04T17:08:33.231Z,4.10
2018-03-04T17:11:03.340Z,4.00
2018-03-04T17:13:31.797Z,4.00
2018-03-04T17:16:00.072Z,4.00
2018-03-04T17:18:29.056Z,4.00
2018-03-04T17:20:58.080Z,4.00
2018-03-04T17:23:27.758Z,4.00
2018-03-04T17:25:58.811Z,4.00
2018-03-04T17:28:28.085Z,3.80
2018-03-04T17:30:58.652Z,3.90
2018-03-04T17:33:27.236Z,3.80
2018-03-04T17:35:55.687Z,3.90
2018-03-04T17:38:26.509Z,3.90
2018-03-04T17:40:54.703Z,3.80
2018-03-04T17:43:23.568Z,3.80
2018-03-04T17:45:51.829Z,3.80
2018-03-04T17:48:19.946Z,3.80
2018-03-04T17:50:48.904Z,3.60
2018-03-04T17:53:17.119Z,3.60
2018-03-04T17:55:45.293Z,3.60
2018-03-04T17:58:13.442Z,3.60
2018-03-04T18:00:42.019Z,3.60
2018-03-04T18:03:10.144Z,3.50
2018-03-04T18:05:38.265Z,3.40
2018-03-04T18:08:07.180Z,3.40
2018-03-04T18:10:35.376Z,3.40
2018-03-04T18:13:03.506Z,3.50
2018-03-04T18:15:31.647Z,3.60
2018-03-04T18:18:00.157Z,3.50
2018-03-04T18:20:29.148Z,3.40
2018-03-04T18:22:57.288Z,3.40
2018-03-04T18:25:25.404Z,3.40
2018-03-04T18:27:53.614Z,3.30
2018-03-04T18:30:22.037Z,3.30
2018-03-04T18:32:51.897Z,3.30
2018-03-04T18:35:20.354Z,3.30
2018-03-04T18:37:49.355Z,3.00
2018-03-04T18:40:17.579Z,3.00
2018-03-04T18:42:45.720Z,3.00
2018-03-04T18:45:14.234Z,3.00
2018-03-04T18:47:43.617Z,3.00
2018-03-04T18:50:11.889Z,2.90
2018-03-04T18:52:40.781Z,2.90
2018-03-04T18:55:08.899Z,2.90
2018-03-04T18:57:37.050Z,2.90
2018-03-04T19:00:05.364Z,2.90
2018-03-04T19:02:33.705Z,2.90
2018-03-04T19:05:01.858Z,2.80
2018-03-04T19:07:29.976Z,2.70
2018-03-04T19:09:58.110Z,2.70
2018-03-04T19:12:26.231Z,2.80
2018-03-04T19:14:54.360Z,2.80
2018-03-04T19:17:22.488Z,2.80
2018-03-04T19:19:50.629Z,2.80
2018-03-04T19:22:18.774Z,2.80
2018-03-04T19:24:46.934Z,2.80
2018-03-04T19:27:15.072Z,2.70
2018-03-04T19:29:43.319Z,2.70
2018-03-04T19:32:11.590Z,2.80
2018-03-04T19:34:39.713Z,2.80
2018-03-04T19:37:08.617Z,2.80
2018-03-04T19:39:36.764Z,2.80
2018-03-04T19:42:04.891Z,2.80
2018-03-04T19:44:33.004Z,2.80
2018-03-04T19:47:01.136Z,2.80
2018-03-04T19:49:29.261Z,2.70
2018-03-04T19:51:58.265Z,2.70
2018-03-04T19:54:26.382Z,2.70
2018-03-04T19:56:55.286Z,2.70
2018-03-04T19:59:23.405Z,2.70
2018-03-04T20:01:51.578Z,2.80
2018-03-04T20:04:20.586Z,3.10
2018-03-04T20:06:48.737Z,3.10
2018-03-04T20:09:16.855Z,3.00
2018-03-04T20:11:45.015Z,3.10
2018-03-04T20:14:13.163Z,3.20
2018-03-04T20:16:41.312Z,3.10
2018-03-04T20:19:09.802Z,3.10
2018-03-04T20:21:38.684Z,3.00
2018-03-04T20:24:07.093Z,3.00
2018-03-04T20:26:35.214Z,3.10
2018-03-04T20:29:03.372Z,3.00
2018-03-04T20:31:31.534Z,3.00
2018-03-04T20:34:00.066Z,2.90
2018-03-04T20:36:28.754Z,2.90
2018-03-04T20:38:56.879Z,2.90
2018-03-04T20:41:25.039Z,2.80
2018-03-04T20:43:53.214Z,2.80
2018-03-04T20:46:21.457Z,2.80
2018-03-04T20:48:49.590Z,2.80
2018-03-04T20:51:17.729Z,2.80
2018-03-04T20:53:45.871Z,2.70
2018-03-04T20:56:14.016Z,2.70
2018-03-04T20:58:42.187Z,2.70
2018-03-04T21:01:10.373Z,2.70
2018-03-04T21:03:38.529Z,2.80
2018-03-04T21:06:06.705Z,2.70
2018-03-04T21:08:34.832Z,2.60
2018-03-04T21:11:02.966Z,2.60
2018-03-04T21:13:31.108Z,2.40
2018-03-04T21:15:59.261Z,2.30
2018-03-04T21:18:28.169Z,2.30
2018-03-04T21:20:56.298Z,2.20
2018-03-04T21:23:24.444Z,2.50
2018-03-04T21:25:52.696Z,2.50
2018-03-04T21:28:21.589Z,2.60
2018-03-04T21:30:49.730Z,2.60
2018-03-04T21:33:18.796Z,2.70
2018-03-04T21:35:46.908Z,2.70
2018-03-04T21:38:15.052Z,2.70
2018-03-04T21:40:43.193Z,2.70
2018-03-04T21:43:11.341Z,2.40
2018-03-04T21:45:39.503Z,2.40
2018-03-04T21:48:08.230Z,2.60
2018-03-04T21:50:36.362Z,2.70
2018-03-04T21:53:04.510Z,2.70
2018-03-04T21:55:33.411Z,2.70
2018-03-04T21:58:02.322Z,2.70
2018-03-04T22:00:30.506Z,2.70
2018-03-04T22:02:58.705Z,2.60
2018-03-04T22:05:26.845Z,2.70
2018-03-04T22:07:55.120Z,2.70
2018-03-04T22:10:23.341Z,2.70
2018-03-04T22:12:51.474Z,2.60
2018-03-04T22:15:19.601Z,2.60
2018-03-04T22:17:47.751Z,2.60
2018-03-04T22:20:15.868Z,2.60
2018-03-04T22:22:44.013Z,2.70
2018-03-04T22:25:12.903Z,2.70
2018-03-04T22:27:41.905Z,2.70
2018-03-04T22:30:10.029Z,2.70
2018-03-04T22:32:38.405Z,2.60
2018-03-04T22:35:06.537Z,2.60
2018-03-04T22:37:34.715Z,2.60
2018-03-04T22:40:02.941Z,2.60
2018-03-04T22:42:31.839Z,2.60
2018-03-04T22:45:00.875Z,2.60
2018-03-04T22:47:29.045Z,2.60
2018-03-04T22:49:57.194Z,2.60
2018-03-04T22:52:26.364Z,2.60
2018-03-04T22:54:55.578Z,2.60
2018-03-04T22:57:23.866Z,2.70
2018-03-04T22:59:51.977Z,2.60
2018-03-04T23:02:20.092Z,2.50
2018-03-04T23:04:49.000Z,2.50
2018-03-04T23:07:17.893Z,2.60
2018-03-04T23:09:46.133Z,2.60
2018-03-04T23:12:15.025Z,2.70
2018-03-04T23:14:43.920Z,2.70
2018-03-04T23:17:12.132Z,2.70
2018-03-04T23:19:40.181Z,2.70
2018-03-04T23:22:08.309Z,2.60
2018-03-04T23:24:36.429Z,2.60
2018-03-04T23:27:04.572Z,2.50
2018-03-04T23:29:33.489Z,2.30
2018-03-04T23:32:01.724Z,2.20
2018-03-04T23:34:30.615Z,2.20
2018-03-04T23:36:59.541Z,2.20
2018-03-04T23:39:27.661Z,2.20
2018-03-04T23:41:56.000Z,2.00
2018-03-04T23:44:24.111Z,1.70
2018-03-04T23:46:52.264Z,1.60
2018-03-04T23:49:20.384Z,1.70
2018-03-04T23:51:48.645Z,1.80
2018-03-04T23:54:17.549Z,1.80
2018-03-04T23:56:46.452Z,1.70
2018-03-04T23:59:14.581Z,1.70
